Time;durP1;ratioP1;P1;durP2;ratioP2;P2;SDS_P1;SDS_P2;PMS_P1;PMS_P2;Temp;Humidity;BMP_temperature;BMP_pressure;BME280_temperature;BME280_humidity;BME280_pressure;Samples;Min_cycle;Max_cycle;Signal;HPM_P1;HPM_P2
2022/09/30 00:01:43;;;;;;;19.17;17.20;;;;;;;6.13;100.00;100656.13;5039681;28;20036;-86
2022/09/30 00:04:12;;;;;;;19.70;17.60;;;;;;;5.88;100.00;100662.56;5044223;28;20033;-86
2022/09/30 00:06:38;;;;;;;20.97;18.83;;;;;;;5.89;100.00;100660.75;5036140;28;20373;-86
2022/09/30 00:09:04;;;;;;;19.27;17.33;;;;;;;5.90;100.00;100665.94;5052505;28;20033;-86
2022/09/30 00:11:32;;;;;;;20.27;18.17;;;;;;;5.76;100.00;100666.75;5044089;28;20032;-86
2022/09/30 00:13:59;;;;;;;19.43;17.43;;;;;;;5.84;100.00;100671.22;5030138;28;20228;-86
2022/09/30 00:16:27;;;;;;;17.80;16.00;;;;;;;5.97;100.00;100673.25;5035912;28;20041;-86
2022/09/30 00:18:54;;;;;;;13.77;12.47;;;;;;;5.80;100.00;100670.75;5043002;28;20036;-86
2022/09/30 00:21:20;;;;;;;14.80;13.30;;;;;;;5.77;100.00;100671.13;5036571;28;20029;-86
2022/09/30 00:23:46;;;;;;;13.90;12.40;;;;;;;5.71;100.00;100671.84;5047495;28;20039;-86
2022/09/30 00:26:20;;;;;;;14.90;13.40;;;;;;;5.63;100.00;100653.97;5035510;28;20129;-87
2022/09/30 00:28:49;;;;;;;18.05;16.20;;;;;;;5.70;100.00;100667.50;5035924;28;20052;-87
2022/09/30 00:31:17;;;;;;;17.93;16.03;;;;;;;5.65;100.00;100667.22;5028890;28;20029;-87
2022/09/30 00:33:43;;;;;;;19.07;16.63;;;;;;;5.78;100.00;100664.72;5043391;28;20060;-87
2022/09/30 00:36:09;;;;;;;17.23;15.43;;;;;;;5.77;100.00;100673.81;5048061;28;20053;-87
2022/09/30 00:38:34;;;;;;;18.03;16.20;;;;;;;5.49;100.00;100650.22;5037085;28;20041;-87
2022/09/30 00:41:01;;;;;;;15.83;14.20;;;;;;;5.67;100.00;100668.69;5053034;28;20032;-87
2022/09/30 00:43:42;;;;;;;15.13;13.63;;;;;;;5.65;100.00;100672.59;5043747;28;20087;-87
2022/09/30 00:46:17;;;;;;;13.17;11.80;;;;;;;5.52;100.00;100666.00;5056429;28;20465;-87
2022/09/30 00:48:42;;;;;;;;;;;;;;;5.78;100.00;100672.78;5037118;28;20034;-87
2022/09/30 00:51:08;;;;;;;14.47;12.97;;;;;;;5.51;100.00;100660.81;5050618;28;19955;-87
2022/09/30 00:53:56;;;;;;;14.63;13.13;;;;;;;5.46;100.00;100669.41;5056521;28;20362;-86
2022/09/30 00:56:29;;;;;;;15.47;13.37;;;;;;;5.53;100.00;100667.66;5037201;28;20041;-86
2022/09/30 00:59:17;;;;;;;14.10;12.80;;;;;;;5.50;100.00;100676.06;5048125;28;20412;-86
2022/09/30 01:01:43;;;;;;;16.03;14.33;;;;;;;5.40;100.00;100664.78;5052720;28;20033;-87
2022/09/30 01:04:12;;;;;;;16.13;14.43;;;;;;;5.43;100.00;100679.66;5026399;28;20112;-87
2022/09/30 01:06:38;;;;;;;17.70;15.87;;;;;;;5.42;100.00;100676.16;5044844;28;20078;-87
2022/09/30 01:09:03;;;;;;;17.00;15.30;;;;;;;5.40;100.00;100672.84;5052985;28;20453;-87
2022/09/30 01:11:29;;;;;;;19.50;17.50;;;;;;;5.44;100.00;100674.13;5056188;28;20217;-86
2022/09/30 01:13:59;;;;;;;19.27;17.27;;;;;;;5.41;100.00;100667.28;5056335;28;20033;-87
2022/09/30 01:16:46;;;;;;;19.93;18.03;;;;;;;5.44;100.00;100679.50;5036903;28;20041;-88
2022/09/30 01:19:29;;;;;;;20.27;18.17;;;;;;;5.48;100.00;100672.75;5037452;28;20025;-87
2022/09/30 01:22:17;;;;;;;19.83;17.83;;;;;;;5.43;100.00;100675.16;5030955;28;20474;-87
2022/09/30 01:24:54;;;;;;;20.43;18.43;;;;;;;5.41;100.00;100674.47;5034362;28;20083;-87
2022/09/30 01:27:23;;;;;;;21.33;19.07;;;;;;;5.38;100.00;100677.53;5040827;28;20052;-87
2022/09/30 01:30:00;;;;;;;21.47;19.37;;;;;;;5.33;100.00;100671.88;5056288;28;20029;-87
2022/09/30 01:32:31;;;;;;;21.70;19.50;;;;;;;5.40;100.00;100673.66;5041632;28;20029;-87
2022/09/30 01:35:22;;;;;;;20.03;18.03;;;;;;;5.29;100.00;100670.56;5034138;28;20087;-87
2022/09/30 01:38:28;;;;;;;20.47;18.37;;;;;;;5.33;100.00;100682.63;5046113;28;20639;-87
2022/09/30 01:41:05;;;;;;;21.10;19.00;;;;;;;5.31;100.00;100676.59;5046661;28;20040;-87
2022/09/30 01:43:46;;;;;;;22.50;20.20;;;;;;;5.27;100.00;100667.22;5055171;28;20032;-87
2022/09/30 01:46:22;;;;;;;23.07;20.70;;;;;;;5.28;100.00;100674.28;5026544;28;20099;-87
2022/09/30 01:49:38;;;;;;;21.87;19.67;;;;;;;5.27;100.00;100669.94;5043531;28;20103;-87
2022/09/30 01:52:09;;;;;;;21.93;19.77;;;;;;;5.18;100.00;100670.00;4931562;28;20420;-86
2022/09/30 01:54:39;;;;;;;22.80;20.57;;;;;;;5.19;100.00;100674.31;4954549;28;20078;-87
2022/09/30 01:57:11;;;;;;;22.03;19.83;;;;;;;5.13;100.00;100677.75;4991983;28;20072;-87
2022/09/30 02:00:03;;;;;;;22.30;20.00;;;;;;;5.23;100.00;100672.94;5034188;28;20037;-87
2022/09/30 02:02:32;;;;;;;21.40;19.17;;;;;;;5.13;100.00;100667.00;5039462;28;20400;-87
2022/09/30 02:05:04;;;;;;;20.57;18.47;;;;;;;5.10;100.00;100669.22;5046839;28;20068;-87
2022/09/30 02:07:41;;;;;;;20.53;18.43;;;;;;;5.07;100.00;100673.94;5031436;28;20484;-87
2022/09/30 02:10:15;;;;;;;20.50;18.40;;;;;;;5.08;100.00;100682.81;5053051;28;20020;-87
2022/09/30 02:12:52;;;;;;;19.90;17.80;;;;;;;5.08;100.00;100674.75;5041732;28;20469;-87
2022/09/30 02:15:23;;;;;;;20.83;18.63;;;;;;;5.07;100.00;100676.63;5029667;28;20052;-87
2022/09/30 02:17:58;;;;;;;22.67;20.37;;;;;;;5.10;100.00;100678.13;5036329;28;20170;-87
2022/09/30 02:20:27;;;;;;;23.07;20.60;;;;;;;5.15;100.00;100681.06;5041117;28;20040;-87
2022/09/30 02:23:01;;;;;;;20.60;18.40;;;;;;;4.99;100.00;100673.16;5034417;28;20028;-86
2022/09/30 02:25:38;;;;;;;21.08;18.90;;;;;;;4.99;100.00;100681.22;5038123;28;20453;-87
2022/09/30 02:28:10;;;;;;;21.13;19.03;;;;;;;4.93;100.00;100682.75;5049498;28;20103;-87
2022/09/30 02:30:41;;;;;;;21.27;19.07;;;;;;;4.87;100.00;100681.63;5033780;28;20033;-87
2022/09/30 02:33:14;;;;;;;21.23;19.03;;;;;;;4.82;100.00;100681.31;5043971;28;20025;-87
2022/09/30 02:36:15;;;;;;;22.57;20.20;;;;;;;4.94;100.00;100683.59;5038571;28;20028;-87
2022/09/30 02:38:45;;;;;;;24.87;22.37;;;;;;;4.94;100.00;100667.47;5009923;28;20534;-87
2022/09/30 02:41:20;;;;;;;25.07;22.50;;;;;;;4.92;100.00;100670.34;5046385;28;20388;-87
2022/09/30 02:43:47;;;;;;;24.27;21.87;;;;;;;4.88;100.00;100659.16;5045512;28;20028;-87
2022/09/30 02:46:42;;;;;;;25.60;23.20;;;;;;;4.89;100.00;100671.53;5019689;28;20036;-87
2022/09/30 02:49:16;;;;;;;;;;;;;;;5.06;100.00;100669.56;5046790;28;20033;-87
2022/09/30 02:52:11;;;;;;;25.40;22.90;;;;;;;4.97;100.00;100669.81;5046768;28;19908;-87
2022/09/30 02:54:45;;;;;;;27.75;25.15;;;;;;;5.06;100.00;100674.94;5045000;28;20028;-87
2022/09/30 02:57:29;;;;;;;;;;;;;;;5.12;100.00;100680.63;5042573;28;20033;-87
2022/09/30 02:59:54;;;;;;;27.80;25.10;;;;;;;4.98;100.00;100674.19;5030277;28;19920;-87
2022/09/30 03:02:20;;;;;;;30.53;27.63;;;;;;;4.88;100.00;100658.28;5033717;28;20030;-87
2022/09/30 03:04:48;;;;;;;31.10;28.20;;;;;;;5.03;100.00;100671.78;5037554;28;20045;-87
2022/09/30 03:07:14;;;;;;;37.00;33.40;;;;;;;5.26;100.00;100679.81;5039064;28;20029;-87
2022/09/30 03:09:39;;;;;;;38.43;34.53;;;;;;;5.31;100.00;100673.91;5034112;28;20373;-88
2022/09/30 03:12:12;;;;;;;41.93;37.83;;;;;;;5.39;100.00;100679.22;5040888;28;20041;-88
2022/09/30 03:14:46;;;;;;;41.50;37.40;;;;;;;5.48;100.00;100682.66;5022096;28;20026;-87
2022/09/30 03:17:24;;;;;;;;;;;;;;;5.50;100.00;100684.13;5037636;28;20051;-87
2022/09/30 03:20:26;;;;;;;45.20;40.80;;;;;;;5.63;100.00;100677.28;5040302;28;19909;-88
2022/09/30 03:23:19;;;;;;;46.93;42.37;;;;;;;5.73;100.00;100688.63;5036214;28;20080;-86
2022/09/30 03:25:58;;;;;;;35.60;32.00;;;;;;;5.50;100.00;100689.50;5053927;28;20033;-87
2022/09/30 03:28:43;;;;;;;31.17;28.17;;;;;;;5.43;100.00;100696.63;5048308;28;20013;-87
2022/09/30 03:31:23;;;;;;;30.67;27.53;;;;;;;5.47;100.00;100691.75;5035980;28;20029;-87
2022/09/30 03:33:54;;;;;;;31.43;28.33;;;;;;;5.47;100.00;100700.63;5053621;28;20017;-87
2022/09/30 03:36:32;;;;;;;28.40;25.50;;;;;;;5.40;100.00;100694.31;5022046;28;20457;-86
2022/09/30 03:39:23;;;;;;;27.80;25.00;;;;;;;5.34;100.00;100692.34;5005827;28;20523;-86
2022/09/30 03:41:58;;;;;;;27.10;24.50;;;;;;;5.21;100.00;100675.00;5031175;28;20465;-87
2022/09/30 03:44:28;;;;;;;27.50;24.80;;;;;;;5.20;100.00;100681.38;5032480;28;20029;-86
2022/09/30 03:46:59;;;;;;;26.17;23.53;;;;;;;5.16;100.00;100690.81;5032399;28;20104;-87
2022/09/30 03:49:35;;;;;;;27.50;24.70;;;;;;;5.11;100.00;100701.25;5046720;28;20451;-86
2022/09/30 03:52:06;;;;;;;25.90;23.20;;;;;;;5.03;100.00;100693.25;5023130;28;20112;-87
2022/09/30 03:54:32;;;;;;;29.23;26.27;;;;;;;5.02;100.00;100699.66;5040933;28;20032;-86
2022/09/30 03:57:04;;;;;;;27.27;24.47;;;;;;;5.00;100.00;100693.63;5053003;28;20041;-87
2022/09/30 03:59:29;;;;;;;28.30;25.40;;;;;;;4.96;100.00;100686.94;5051243;28;20025;-87
2022/09/30 04:01:56;;;;;;;27.20;24.43;;;;;;;4.95;100.00;100702.22;5018875;28;20094;-86
2022/09/30 04:04:21;;;;;;;28.27;25.37;;;;;;;4.94;100.00;100722.03;5032087;28;20145;-86
2022/09/30 04:06:47;;;;;;;28.43;25.53;;;;;;;4.99;100.00;100721.47;5049220;28;20090;-86
2022/09/30 04:09:12;;;;;;;28.07;25.30;;;;;;;4.92;100.00;100721.34;5053409;28;20017;-87
2022/09/30 04:11:37;;;;;;;31.23;28.03;;;;;;;4.93;100.00;100719.53;5052534;28;20032;-87
2022/09/30 04:14:04;;;;;;;31.83;28.63;;;;;;;4.85;100.00;100734.66;5052711;28;20123;-87
2022/09/30 04:16:30;;;;;;;30.67;27.77;;;;;;;4.89;100.00;100746.72;5046928;28;20075;-86
2022/09/30 04:18:56;;;;;;;29.70;26.77;;;;;;;4.87;100.00;100746.06;5034469;28;20022;-86
2022/09/30 04:21:21;;;;;;;26.87;24.10;;;;;;;4.88;100.00;100761.16;5043608;28;20025;-86
2022/09/30 04:23:48;;;;;;;25.73;23.07;;;;;;;4.86;100.00;100767.72;5049864;28;20091;-86
2022/09/30 04:26:15;;;;;;;24.97;22.37;;;;;;;4.69;100.00;100772.31;5044708;28;20036;-86
2022/09/30 04:28:41;;;;;;;24.80;22.00;;;;;;;4.64;100.00;100782.75;5034010;28;20373;-85
2022/09/30 04:31:10;;;;;;;25.10;22.07;;;;;;;4.65;100.00;100779.06;5053183;28;20032;-85
2022/09/30 04:33:36;;;;;;;25.63;22.93;;;;;;;4.56;100.00;100773.72;5033222;28;20507;-86
2022/09/30 04:36:02;;;;;;;25.73;23.13;;;;;;;4.60;100.00;100778.72;5037831;28;20025;-86
2022/09/30 04:38:28;;;;;;;26.80;24.00;;;;;;;4.47;100.00;100755.97;5050447;28;20118;-86
2022/09/30 04:44:15;;;;;;;27.67;24.87;;;;;;;4.50;100.00;100763.69;5050494;28;20480;-87
2022/09/30 04:46:42;;;;;;;27.27;24.57;;;;;;;4.47;100.00;100763.19;5053122;28;20025;-86
2022/09/30 04:49:07;;;;;;;31.13;28.10;;;;;;;4.52;100.00;100767.03;5051996;28;20025;-86
2022/09/30 04:51:32;;;;;;;34.40;31.00;;;;;;;4.59;100.00;100763.66;5034449;28;20035;-86
2022/09/30 04:53:58;;;;;;;34.97;31.47;;;;;;;4.64;100.00;100772.03;5045233;28;20025;-86
2022/09/30 04:56:25;;;;;;;34.60;31.20;;;;;;;4.63;100.00;100773.88;5038370;28;20369;-86
2022/09/30 04:58:52;;;;;;;33.70;30.30;;;;;;;4.53;100.00;100776.75;5005145;28;20417;-86
2022/09/30 05:01:18;;;;;;;33.20;29.77;;;;;;;4.54;100.00;100788.31;5033769;28;20026;-86
2022/09/30 05:03:43;;;;;;;30.10;27.10;;;;;;;4.56;100.00;100792.50;5054461;28;20086;-86
2022/09/30 05:06:09;;;;;;;29.00;26.10;;;;;;;4.48;100.00;100780.97;5051909;28;20040;-86
2022/09/30 05:08:35;;;;;;;28.70;25.87;;;;;;;4.44;100.00;100801.94;5044664;28;20047;-86
2022/09/30 05:11:09;;;;;;;28.77;25.87;;;;;;;4.44;100.00;100801.13;5039391;28;20516;-87
2022/09/30 05:13:37;;;;;;;27.80;24.90;;;;;;;4.42;100.00;100798.59;5055631;28;20529;-87
2022/09/30 05:16:04;;;;;;;27.80;25.03;;;;;;;4.39;100.00;100796.25;5044642;28;20346;-87
2022/09/30 05:18:30;;;;;;;28.63;25.70;;;;;;;4.39;100.00;100798.94;5017845;28;20137;-87
2022/09/30 05:20:56;;;;;;;31.50;28.23;;;;;;;4.48;100.00;100795.22;5041727;28;20392;-86
2022/09/30 05:23:23;;;;;;;30.87;27.77;;;;;;;4.45;100.00;100797.41;5053285;28;20029;-86
2022/09/30 05:25:50;;;;;;;31.47;28.33;;;;;;;4.42;100.00;100809.34;5055280;28;20040;-87
2022/09/30 05:28:16;;;;;;;33.87;30.47;;;;;;;4.47;100.00;100798.91;5054688;28;20035;-87
2022/09/30 05:30:43;;;;;;;39.43;35.47;;;;;;;4.59;100.00;100796.69;5038476;28;20029;-87
2022/09/30 05:33:09;;;;;;;34.23;30.80;;;;;;;4.48;100.00;100803.28;5055106;28;20068;-86
2022/09/30 05:35:34;;;;;;;31.60;28.50;;;;;;;4.47;100.00;100798.06;5037664;28;20044;-87
2022/09/30 05:38:04;;;;;;;40.30;36.17;;;;;;;4.53;100.00;100806.28;5049910;28;20057;-87
2022/09/30 05:40:30;;;;;;;41.30;37.00;;;;;;;4.66;100.00;100807.56;5043383;28;20024;-87
2022/09/30 05:42:57;;;;;;;39.67;35.67;;;;;;;4.66;100.00;100811.06;5034784;28;20034;-87
2022/09/30 05:45:23;;;;;;;42.40;38.07;;;;;;;4.75;100.00;100819.94;5033519;28;20033;-87
2022/09/30 05:47:53;;;;;;;44.13;39.50;;;;;;;4.81;100.00;100824.59;5045695;28;20105;-87
2022/09/30 05:50:19;;;;;;;44.37;39.53;;;;;;;4.88;100.00;100836.34;5033423;28;20369;-88
2022/09/30 05:52:45;;;;;;;43.63;39.03;;;;;;;4.94;100.00;100839.31;5052218;28;20029;-87
2022/09/30 05:55:10;;;;;;;41.97;37.30;;;;;;;4.97;100.00;100844.34;5055147;28;20487;-87
2022/09/30 05:57:35;;;;;;;42.67;37.87;;;;;;;5.01;100.00;100846.50;5036653;28;20040;-87
2022/09/30 06:03:22;;;;;;;40.83;36.53;;;;;;;5.08;100.00;100843.97;5020338;28;20048;-87
2022/09/30 06:05:54;;;;;;;41.37;37.30;;;;;;;5.10;100.00;100850.00;5055044;28;20032;-88
2022/09/30 06:08:19;;;;;;;42.60;38.30;;;;;;;5.16;100.00;100851.97;5054269;28;20056;-88
2022/09/30 06:10:45;;;;;;;41.27;36.87;;;;;;;5.20;100.00;100852.47;5035567;28;20067;-88
2022/09/30 06:13:11;;;;;;;41.87;37.67;;;;;;;5.20;100.00;100845.22;5017336;28;20060;-88
2022/09/30 06:15:38;;;;;;;42.23;37.93;;;;;;;5.23;100.00;100852.09;5034957;28;20140;-88
2022/09/30 06:18:04;;;;;;;41.60;37.27;;;;;;;5.34;100.00;100864.31;5031181;28;20052;-87
2022/09/30 06:20:30;;;;;;;41.43;37.10;;;;;;;5.35;100.00;100861.44;5053361;28;20047;-88
2022/09/30 06:22:58;;;;;;;41.47;37.27;;;;;;;5.35;100.00;100852.56;5047430;28;20148;-88
2022/09/30 06:25:24;;;;;;;41.93;37.60;;;;;;;5.46;100.00;100865.56;5035892;28;20036;-88
2022/09/30 06:27:49;;;;;;;42.47;38.13;;;;;;;5.50;100.00;100861.50;5038314;28;20021;-88
2022/09/30 06:30:15;;;;;;;40.97;36.73;;;;;;;5.57;100.00;100867.84;5016424;28;20569;-88
2022/09/30 06:32:41;;;;;;;38.73;34.93;;;;;;;5.58;100.00;100860.63;5038196;28;20078;-89
2022/09/30 06:35:07;;;;;;;36.90;33.17;;;;;;;5.70;100.00;100877.19;5040397;28;20020;-88
2022/09/30 06:37:35;;;;;;;37.43;33.73;;;;;;;5.74;100.00;100878.50;5052558;28;20473;-88
2022/09/30 06:40:01;;;;;;;37.63;33.83;;;;;;;5.79;100.00;100875.25;5034671;28;20029;-88
2022/09/30 06:42:26;;;;;;;38.00;34.17;;;;;;;5.85;100.00;100879.94;5014495;28;20054;-88
2022/09/30 06:44:51;;;;;;;36.47;32.83;;;;;;;5.92;100.00;100873.63;5015159;28;20104;-87
2022/09/30 06:47:17;;;;;;;36.53;32.83;;;;;;;5.98;100.00;100873.97;5018854;28;20096;-88
2022/09/30 06:49:43;;;;;;;39.17;35.27;;;;;;;6.00;100.00;100861.19;5033011;28;20500;-88
2022/09/30 06:52:11;;;;;;;37.93;34.30;;;;;;;6.13;100.00;100866.75;5051548;28;20029;-88
2022/09/30 06:54:38;;;;;;;39.23;35.33;;;;;;;6.18;100.00;100850.91;5048465;28;20028;-87
2022/09/30 06:57:03;;;;;;;54.97;34.77;;;;;;;6.31;100.00;100862.91;5053636;28;20040;-87
2022/09/30 06:59:28;;;;;;;35.83;32.20;;;;;;;6.37;100.00;100862.19;5051606;28;20037;-88
2022/09/30 07:01:54;;;;;;;35.03;31.43;;;;;;;6.45;100.00;100862.09;5030462;28;20032;-88
2022/09/30 07:04:19;;;;;;;35.70;32.10;;;;;;;6.61;100.00;100862.94;5019353;28;20390;-89
2022/09/30 07:06:45;;;;;;;35.77;32.33;;;;;;;6.61;100.00;100862.94;5054652;28;20452;-89
2022/09/30 07:09:11;;;;;;;34.83;31.33;;;;;;;6.70;100.00;100867.22;5040309;28;20095;-88
2022/09/30 07:11:37;;;;;;;33.03;29.83;;;;;;;6.73;100.00;100864.13;5049889;28;20033;-88
2022/09/30 07:14:06;;;;;;;35.83;32.23;;;;;;;6.85;100.00;100864.50;5052400;28;20377;-87
2022/09/30 07:16:33;;;;;;;35.53;31.93;;;;;;;7.00;100.00;100875.28;5028726;28;20098;-87
2022/09/30 07:18:59;;;;;;;34.70;31.20;;;;;;;7.14;100.00;100874.44;5030564;28;20033;-88
2022/09/30 07:21:25;;;;;;;32.50;29.10;;;;;;;7.04;100.00;100861.22;5027463;28;20044;-89
2022/09/30 07:23:52;;;;;;;33.00;29.60;;;;;;;7.30;100.00;100872.53;5010123;28;20025;-87
2022/09/30 07:26:19;;;;;;;33.03;29.50;;;;;;;7.33;100.00;100877.53;5033066;28;20385;-88
2022/09/30 07:28:46;;;;;;;33.83;30.30;;;;;;;7.37;100.00;100851.88;5029610;28;20040;-89
2022/09/30 07:31:17;;;;;;;31.60;28.13;;;;;;;7.56;100.00;100878.22;5029386;28;20040;-89
2022/09/30 07:33:43;;;;;;;30.87;27.77;;;;;;;7.67;100.00;100879.59;5029925;28;20039;-88
2022/09/30 07:36:10;;;;;;;32.00;28.80;;;;;;;7.81;100.00;100868.94;5029676;28;20032;-89
2022/09/30 07:38:39;;;;;;;30.47;27.27;;;;;;;7.91;100.00;100889.16;5020823;28;20041;-87
2022/09/30 07:41:08;;;;;;;30.63;27.47;;;;;;;7.99;100.00;100884.66;5029247;28;20052;-89
2022/09/30 07:43:38;;;;;;;28.37;25.30;;;;;;;8.01;100.00;100879.88;5030125;28;20560;-87
2022/09/30 07:46:10;;;;;;;32.60;29.20;;;;;;;8.39;100.00;100887.66;5029167;28;20035;-88
2022/09/30 07:48:50;;;;;;;31.47;28.30;;;;;;;8.59;100.00;100893.25;5029851;28;20037;-88
2022/09/30 07:51:26;;;;;;;29.87;26.77;;;;;;;8.83;100.00;100883.84;5029078;28;20580;-88
2022/09/30 07:54:00;;;;;;;29.33;26.27;;;;;;;9.01;100.00;100879.78;5029667;28;20523;-89
2022/09/30 07:56:26;;;;;;;30.20;26.98;;;;;;;9.25;100.00;100879.25;5029108;28;20034;-90
2022/09/30 07:58:56;;;;;;;28.17;25.17;;;;;;;9.42;100.00;100876.19;5030003;28;20381;-88
2022/09/30 08:01:23;;;;;;;29.03;25.93;;;;;;;9.78;100.00;100881.28;5029082;28;20059;-89
2022/09/30 08:03:52;;;;;;;26.43;23.37;;;;;;;9.91;99.89;100869.66;5030010;28;20033;-88
2022/09/30 08:06:18;;;;;;;25.83;23.03;;;;;;;10.18;98.95;100880.47;5011482;28;20033;-88
2022/09/30 08:08:45;;;;;;;27.50;23.03;;;;;;;10.45;99.62;100875.06;5029398;28;20048;-89
2022/09/30 08:11:11;;;;;;;25.53;22.30;;;;;;;10.54;96.79;100862.13;5029051;28;20037;-89
2022/09/30 08:13:37;;;;;;;26.07;21.43;;;;;;;10.76;95.08;100871.69;5029323;28;20041;-89
2022/09/30 08:16:04;;;;;;;24.20;21.60;;;;;;;10.95;94.32;100872.66;5028002;28;20259;-89
2022/09/30 08:18:29;;;;;;;25.60;21.57;;;;;;;11.12;94.06;100872.19;5029918;28;20029;-88
2022/09/30 08:20:55;;;;;;;23.77;20.10;;;;;;;11.30;92.90;100869.59;5028988;28;20056;-90
2022/09/30 08:23:21;;;;;;;23.10;18.90;;;;;;;11.56;92.22;100881.38;5029174;28;20436;-90
2022/09/30 08:25:47;;;;;;;24.13;18.87;;;;;;;11.79;90.51;100875.38;5031413;28;20048;-90
2022/09/30 08:28:13;;;;;;;20.77;17.43;;;;;;;11.81;87.82;100875.97;5033314;28;20047;-89
2022/09/30 08:30:39;;;;;;;22.10;18.07;;;;;;;12.01;87.53;100871.47;5032655;28;20469;-90
2022/09/30 08:33:05;;;;;;;20.83;16.93;;;;;;;12.13;86.87;100880.59;5033354;28;20586;-89
2022/09/30 08:35:30;;;;;;;21.27;17.23;;;;;;;12.43;87.69;100883.47;5032164;28;20116;-90
2022/09/30 08:37:56;;;;;;;20.77;16.63;;;;;;;12.66;86.48;100882.81;5007871;28;20034;-90
2022/09/30 08:40:37;;;;;;;18.17;16.23;;;;;;;12.30;84.59;100873.53;5032628;28;20037;-90
2022/09/30 08:43:20;;;;;;;20.43;15.60;;;;;;;12.23;84.62;100883.66;5032629;28;20045;-90
2022/09/30 08:45:51;;;;;;;18.77;15.80;;;;;;;12.52;85.01;100889.44;5032798;28;20107;-88
2022/09/30 08:48:41;;;;;;;20.03;15.77;;;;;;;12.80;85.33;100883.50;5032666;28;20032;-89
2022/09/30 08:51:15;;;;;;;18.53;14.30;;;;;;;12.98;83.25;100896.28;5032331;28;20061;-90
2022/09/30 08:53:45;;;;;;;18.00;13.18;;;;;;;13.25;82.95;100906.84;5032623;28;20032;-88
2022/09/30 08:56:22;;;;;;;16.30;13.30;;;;;;;13.33;82.11;100911.16;5032473;28;20037;-90
2022/09/30 08:58:52;;;;;;;17.67;14.20;;;;;;;13.56;81.07;100899.59;5007114;28;20075;-88
2022/09/30 09:01:33;;;;;;;18.27;14.00;;;;;;;13.85;80.76;100897.91;5031449;28;20032;-90
2022/09/30 09:04:01;;;;;;;18.20;14.47;;;;;;;14.11;80.70;100895.81;5039065;28;20021;-89
2022/09/30 09:06:32;;;;;;;20.50;14.90;;;;;;;14.16;78.75;100903.31;5037721;28;20024;-89
2022/09/30 09:09:18;;;;;;;19.13;14.43;;;;;;;14.53;80.64;100894.94;5056273;28;20457;-92
2022/09/30 09:11:48;;;;;;;19.77;15.50;;;;;;;14.58;76.71;100878.69;5055410;28;20811;-89
2022/09/30 09:14:51;;;;;;;20.70;16.53;;;;;;;14.10;75.32;100880.56;5053419;28;20029;-91
2022/09/30 09:17:26;;;;;;;20.90;17.57;;;;;;;13.77;76.62;100894.69;5036490;28;20037;-90
2022/09/30 09:20:09;;;;;;;;;;;;;;;14.50;76.77;100898.94;5036629;28;20033;-88
2022/09/30 09:22:36;;;;;;;20.50;17.40;;;;;;;14.32;78.68;100897.19;5035905;28;20341;-88
2022/09/30 09:25:02;;;;;;;19.77;15.47;;;;;;;14.39;73.99;100882.59;5036299;28;20033;-90
2022/09/30 09:27:49;;;;;;;20.13;16.17;;;;;;;14.56;75.10;100891.72;5018325;28;20520;-87
2022/09/30 09:30:19;;;;;;;19.87;15.93;;;;;;;14.68;74.94;100895.31;5035095;28;20037;-90
2022/09/30 09:32:54;;;;;;;21.03;15.60;;;;;;;14.62;74.49;100907.16;5051006;28;20051;-87
2022/09/30 09:35:34;;;;;;;19.40;14.90;;;;;;;14.87;75.07;100910.72;5055892;28;20017;-87
2022/09/30 09:38:28;;;;;;;19.80;15.30;;;;;;;15.15;75.63;100912.66;5055197;28;20027;-89
2022/09/30 09:41:20;;;;;;;20.48;15.60;;;;;;;15.42;75.78;100909.41;5056468;28;20025;-88
2022/09/30 09:44:15;;;;;;;18.87;14.80;;;;;;;15.40;73.11;100900.63;5051477;28;20017;-88
2022/09/30 09:46:47;;;;;;;16.05;11.77;;;;;;;15.67;70.54;100901.69;5022052;28;20055;-89
2022/09/30 09:49:16;;;;;;;14.10;11.27;;;;;;;15.64;68.82;100907.66;5047995;28;20021;-91
2022/09/30 09:51:47;;;;;;;14.10;11.23;;;;;;;15.30;69.73;100912.16;5053149;28;20060;-91
2022/09/30 09:54:20;;;;;;;15.03;11.97;;;;;;;15.44;69.74;100905.34;5028736;28;20473;-88
2022/09/30 09:56:45;;;;;;;16.20;11.70;;;;;;;15.64;69.78;100885.81;5042949;28;20056;-88
2022/09/30 09:59:16;;;;;;;16.23;11.00;;;;;;;15.82;67.72;100895.72;5037506;28;20029;-89
2022/09/30 10:01:44;;;;;;;14.90;10.97;;;;;;;15.80;68.39;100886.09;5052630;28;20029;-88
2022/09/30 10:04:25;;;;;;;13.93;10.60;;;;;;;15.97;68.91;100880.69;5035710;28;20112;-90
2022/09/30 10:06:58;;;;;;;16.57;10.70;;;;;;;16.12;68.59;100880.13;5035714;28;20017;-91
2022/09/30 10:09:29;;;;;;;11.75;9.55;;;;;;;16.25;66.80;100885.25;5017645;28;20330;-90
2022/09/30 10:12:06;;;;;;;13.40;9.57;;;;;;;16.40;66.45;100892.03;5039275;28;20032;-88
2022/09/30 10:14:55;;;;;;;12.07;9.47;;;;;;;16.40;66.64;100894.75;5042071;28;20111;-87
2022/09/30 10:17:28;;;;;;;13.03;9.87;;;;;;;16.28;66.77;100900.31;5017076;28;20030;-84
2022/09/30 10:20:01;;;;;;;14.33;10.13;;;;;;;16.63;66.39;100893.72;5042815;28;20064;-87
2022/09/30 10:22:29;;;;;;;12.83;10.00;;;;;;;16.57;65.29;100898.31;5039518;28;20519;-88
2022/09/30 10:25:18;;;;;;;12.57;9.55;;;;;;;16.88;65.41;100910.50;5048500;28;20090;-87
2022/09/30 10:27:50;;;;;;;12.23;10.20;;;;;;;16.67;67.61;100900.34;5042907;28;20108;-84
2022/09/30 10:30:42;;;;;;;14.27;10.80;;;;;;;17.10;67.86;100895.25;5045798;28;20055;-87
2022/09/30 10:33:17;;;;;;;13.55;10.18;;;;;;;16.97;65.85;100899.16;5051537;28;20024;-87
2022/09/30 10:35:53;;;;;;;11.38;9.43;;;;;;;16.61;66.43;100902.19;5018612;28;20036;-89
2022/09/30 10:38:19;;;;;;;11.90;8.60;;;;;;;16.83;64.06;100898.69;5034197;28;20083;-86
2022/09/30 10:40:50;;;;;;;12.80;9.30;;;;;;;16.81;64.36;100898.09;5053887;28;20036;-85
2022/09/30 10:43:38;;;;;;;11.27;9.20;;;;;;;16.93;65.60;100904.34;5039347;28;20079;-88
2022/09/30 10:46:04;;;;;;;11.17;8.20;;;;;;;16.99;65.87;100906.03;5047372;28;20025;-86
2022/09/30 10:48:33;;;;;;;10.35;7.97;;;;;;;17.04;65.22;100897.91;5047128;28;20032;-87
2022/09/30 10:50:59;;;;;;;11.80;8.02;;;;;;;16.94;65.21;100900.50;5041318;28;20028;-88
2022/09/30 10:53:28;;;;;;;9.38;7.47;;;;;;;17.09;64.74;100905.34;5040613;28;20029;-87
2022/09/30 10:55:55;;;;;;;9.48;6.88;;;;;;;17.41;63.77;100906.53;5051499;28;20025;-89
2022/09/30 10:58:44;;;;;;;8.82;6.70;;;;;;;17.74;62.05;100902.00;5012050;28;20087;-87
2022/09/30 11:01:22;;;;;;;9.13;7.10;;;;;;;17.18;63.91;100908.47;5029797;28;20095;-88
2022/09/30 11:04:04;;;;;;;9.73;7.30;;;;;;;17.47;64.92;100898.13;5029982;28;20037;-87
2022/09/30 11:06:37;;;;;;;9.02;7.57;;;;;;;17.36;62.94;100894.44;5029645;28;20079;-87
2022/09/30 11:09:35;;;;;;;7.03;6.33;;;;;;;17.65;61.14;100888.75;5030473;28;20039;-87
2022/09/30 11:12:23;;;;;;;6.95;5.82;;;;;;;17.42;62.62;100895.34;4973754;28;20419;-87
2022/09/30 11:15:11;;;;;;;7.68;5.93;;;;;;;17.11;63.53;100886.78;5027981;28;20059;-88
2022/09/30 11:17:55;;;;;;;5.83;4.90;;;;;;;17.16;62.33;100880.50;5029674;28;20048;-88
2022/09/30 11:20:33;;;;;;;6.68;4.90;;;;;;;16.84;61.53;100870.25;5029719;28;20080;-87
2022/09/30 11:23:19;;;;;;;7.73;5.47;;;;;;;16.74;62.17;100892.81;5029896;28;20049;-89
2022/09/30 11:25:47;;;;;;;6.63;4.50;;;;;;;16.34;62.25;100883.72;5030233;28;20060;-86
2022/09/30 11:28:31;;;;;;;5.60;4.53;;;;;;;16.26;65.04;100889.63;5028483;28;20579;-87
2022/09/30 11:31:10;;;;;;;7.63;4.82;;;;;;;16.18;66.33;100884.56;5030156;28;20037;-86
2022/09/30 11:33:50;;;;;;;8.13;4.47;;;;;;;16.09;65.47;100877.84;5053227;28;20032;-87
2022/09/30 11:36:33;;;;;;;4.13;3.37;;;;;;;16.01;65.16;100879.94;5052362;28;20040;-88
2022/09/30 11:39:29;;;;;;;4.07;2.90;;;;;;;16.24;62.71;100875.38;5015595;28;20021;-88
2022/09/30 11:42:11;;;;;;;3.87;3.20;;;;;;;16.00;64.14;100870.06;5037700;28;20037;-89